Aviation Digital Data Service (ADDS)

Output produced by METARs form (2328 UTC 23 March 2019)
found at http://www.aviationweather.gov/metar/data/
 
METAR text: VTCP 231100Z 00000KT 1500 HZ NSC 35/15 Q1005 NOSIG
Conditions at: VTCP (PHRAE , TH) observed 1100 UTC 23 March 2019
Temperature: 35.0°C (95°F)
Dewpoint: 15.0°C (59°F) [RH = 30%]
Pressure (altimeter): 29.68 inches Hg (1005.0 mb)
Winds: calm
Visibility: 0.93 miles (1.50 km)
Ceiling: at least 12,000 feet AGL
Clouds: sky clear below 12,000 feet AGL
Weather: HZ  (haze)

METAR text: VTCP 231000Z 00000KT 1500 HZ NSC 38/16 Q1005 NOSIG
Conditions at: VTCP (PHRAE , TH) observed 1000 UTC 23 March 2019
Temperature: 38.0°C (100°F)
Dewpoint: 16.0°C (61°F) [RH = 27%]
Pressure (altimeter): 29.68 inches Hg (1005.0 mb)
Winds: calm
Visibility: 0.93 miles (1.50 km)
Ceiling: at least 12,000 feet AGL
Clouds: sky clear below 12,000 feet AGL
Weather: HZ  (haze)

METAR text: VTCP 230900Z 00000KT 1500 HZ NSC 39/14 Q1005 NOSIG
Conditions at: VTCP (PHRAE , TH) observed 0900 UTC 23 March 2019
Temperature: 39.0°C (102°F)
Dewpoint: 14.0°C (57°F) [RH = 23%]
Pressure (altimeter): 29.68 inches Hg (1005.0 mb)
Winds: calm
Visibility: 0.93 miles (1.50 km)
Ceiling: at least 12,000 feet AGL
Clouds: sky clear below 12,000 feet AGL
Weather: HZ  (haze)

METAR text: VTCP 230800Z VRB02KT 1500 HZ NSC 39/14 Q1006 NOSIG
Conditions at: VTCP (PHRAE , TH) observed 0800 UTC 23 March 2019
Temperature: 39.0°C (102°F)
Dewpoint: 14.0°C (57°F) [RH = 23%]
Pressure (altimeter): 29.70 inches Hg (1006.0 mb)
Winds: variable direction winds at 2 MPH (2 knots; 1.0 m/s)
Visibility: 0.93 miles (1.50 km)
Ceiling: at least 12,000 feet AGL
Clouds: sky clear below 12,000 feet AGL
Weather: HZ  (haze)

METAR text: VTCP 230700Z VRB03KT 1300 R01/2000 HZ NSC 39/12 Q1007 NOSIG
Conditions at: VTCP (PHRAE , TH) observed 0700 UTC 23 March 2019
Temperature: 39.0°C (102°F)
Dewpoint: 12.0°C (54°F) [RH = 20%]
Pressure (altimeter): 29.73 inches Hg (1007.0 mb)
Winds: variable direction winds at 3 MPH (3 knots; 1.5 m/s)
Visibility: 0.81 miles (1.30 km)
Ceiling: at least 12,000 feet AGL
Clouds: sky clear below 12,000 feet AGL
Weather: HZ  (haze)

METAR text: VTCP 230600Z 27003KT 170V330 1100 R01/2000 HZ NSC 37/14 Q1009 BECMG 1500 HZ
Conditions at: VTCP (PHRAE , TH) observed 0600 UTC 23 March 2019
Temperature: 37.0°C (99°F)
Dewpoint: 14.0°C (57°F) [RH = 25%]
Pressure (altimeter): 29.79 inches Hg (1009.0 mb)
Winds: from the W (270 degrees) at 3 MPH (3 knots; 1.5 m/s)
Visibility: 0.68 miles (1.09 km)
Ceiling: at least 12,000 feet AGL
Clouds: sky clear below 12,000 feet AGL
Weather: HZ  (haze)

METAR text: VTCP 230500Z VRB01KT 0800 R01/2000 FU NSC 36/15 Q1010 NOSIG
Conditions at: VTCP (PHRAE , TH) observed 0500 UTC 23 March 2019
Temperature: 36.0°C (97°F)
Dewpoint: 15.0°C (59°F) [RH = 29%]
Pressure (altimeter): 29.82 inches Hg (1010.0 mb)
Winds: variable direction winds at 1 MPH (1 knots; 0.5 m/s)
Visibility: 0.50 miles (0.80 km)
Ceiling: at least 12,000 feet AGL
Clouds: sky clear below 12,000 feet AGL
Weather: FU  (smoke)

METAR text: VTCP 230400Z VRB02KT 0700 R01/2000 FU NSC 33/16 Q1011 NOSIG
Conditions at: VTCP (PHRAE , TH) observed 0400 UTC 23 March 2019
Temperature: 33.0°C (91°F)
Dewpoint: 16.0°C (61°F) [RH = 36%]
Pressure (altimeter): 29.85 inches Hg (1011.0 mb)
Winds: variable direction winds at 2 MPH (2 knots; 1.0 m/s)
Visibility: 0.43 miles (0.69 km)
Ceiling: at least 12,000 feet AGL
Clouds: sky clear below 12,000 feet AGL
Weather: FU  (smoke)

METAR text: VTCP 230300Z 28003KT 240V320 0700 R01/2000 FU NSC 28/16 Q1012 NOSIG
Conditions at: VTCP (PHRAE , TH) observed 0300 UTC 23 March 2019
Temperature: 28.0°C (82°F)
Dewpoint: 16.0°C (61°F) [RH = 48%]
Pressure (altimeter): 29.88 inches Hg (1012.0 mb)
Winds: from the W (280 degrees) at 3 MPH (3 knots; 1.5 m/s)
Visibility: 0.43 miles (0.69 km)
Ceiling: at least 12,000 feet AGL
Clouds: sky clear below 12,000 feet AGL
Weather: FU  (smoke)

METAR text: VTCP 230200Z VRB02KT 0700 R01/2000 FU NSC 25/17 Q1012 NOSIG
Conditions at: VTCP (PHRAE , TH) observed 0200 UTC 23 March 2019
Temperature: 25.0°C (77°F)
Dewpoint: 17.0°C (63°F) [RH = 61%]
Pressure (altimeter): 29.88 inches Hg (1012.0 mb)
Winds: variable direction winds at 2 MPH (2 knots; 1.0 m/s)
Visibility: 0.43 miles (0.69 km)
Ceiling: at least 12,000 feet AGL
Clouds: sky clear below 12,000 feet AGL
Weather: FU  (smoke)

METAR text: VTCP 230100Z VRB02KT 1000 R01/2000 BR NSC 22/16 Q1011 NOSIG
Conditions at: VTCP (PHRAE , TH) observed 0100 UTC 23 March 2019
Temperature: 22.0°C (72°F)
Dewpoint: 16.0°C (61°F) [RH = 69%]
Pressure (altimeter): 29.85 inches Hg (1011.0 mb)
Winds: variable direction winds at 2 MPH (2 knots; 1.0 m/s)
Visibility: 0.62 miles (1.00 km)
Ceiling: at least 12,000 feet AGL
Clouds: sky clear below 12,000 feet AGL
Weather: BR  (mist)

METAR text: VTCP 230000Z 00000KT 1500 BR NSC 19/17 Q1010 NOSIG
Conditions at: VTCP (PHRAE , TH) observed 0000 UTC 23 March 2019
Temperature: 19.0°C (66°F)
Dewpoint: 17.0°C (63°F) [RH = 88%]
Pressure (altimeter): 29.82 inches Hg (1010.0 mb)
Winds: calm
Visibility: 0.93 miles (1.50 km)
Ceiling: at least 12,000 feet AGL
Clouds: sky clear below 12,000 feet AGL
Weather: BR  (mist)

Forecast for: VTCP (PHRAE , TH)
Text: TAF VTCP 231700Z 2318/2418 18005KT 2000 HZ NSC
Forecast period: 1800 to 2100 UTC 23 March 2019
Forecast type: FROM: standard forecast or significant change
Winds: from the S (180 degrees) at 6 MPH (5 knots; 2.6 m/s)
Visibility: 1.24 miles (2.00 km)
Ceiling: unknown
Clouds: missing
Weather: HZ  (haze)
Text: BECMG 2321/2323 1000 BR
Forecast period: 2100 UTC 23 March 2019 to 0100 UTC 24 March 2019
Forecast type: BECOMING: Conditions expected to become as follows by 2300 UTC 23 March 2019
Winds: from the S (180 degrees) at 6 MPH (5 knots; 2.6 m/s)
Visibility: 0.62 miles (1.00 km)
Ceiling: unknown
Clouds: missing
Weather: BR  (mist)
Text: BECMG 2401/2403 2000 HZ
Forecast period: 0100 to 1800 UTC 24 March 2019
Forecast type: BECOMING: Conditions expected to become as follows by 0300 UTC 24 March 2019
Winds: from the S (180 degrees) at 6 MPH (5 knots; 2.6 m/s)
Visibility: 1.24 miles (2.00 km)
Ceiling: unknown
Clouds: missing
Weather: HZ  (haze)